sensor_id;sensor_type;location;lat;lon;timestamp;P1;durP1;ratioP1;P2;durP2;ratioP2
37311;SDS011;23197;53.912;9.138;2022-07-03T00:01:22;4.32;;;1.80;;
37311;SDS011;23197;53.912;9.138;2022-07-03T00:03:47;2.75;;;1.60;;
37311;SDS011;23197;53.912;9.138;2022-07-03T00:06:13;4.28;;;1.83;;
37311;SDS011;23197;53.912;9.138;2022-07-03T00:08:39;4.97;;;2.00;;
37311;SDS011;23197;53.912;9.138;2022-07-03T00:11:05;2.38;;;1.70;;
37311;SDS011;23197;53.912;9.138;2022-07-03T00:13:31;3.95;;;2.00;;
37311;SDS011;23197;53.912;9.138;2022-07-03T00:15:56;3.58;;;1.80;;
37311;SDS011;23197;53.912;9.138;2022-07-03T00:18:22;2.85;;;1.73;;
37311;SDS011;23197;53.912;9.138;2022-07-03T00:20:48;4.60;;;2.17;;
37311;SDS011;23197;53.912;9.138;2022-07-03T00:23:16;4.47;;;2.30;;
37311;SDS011;23197;53.912;9.138;2022-07-03T00:25:43;3.70;;;2.17;;
37311;SDS011;23197;53.912;9.138;2022-07-03T00:28:09;5.15;;;2.17;;
37311;SDS011;23197;53.912;9.138;2022-07-03T00:30:35;4.65;;;2.05;;
37311;SDS011;23197;53.912;9.138;2022-07-03T00:33:04;4.05;;;2.17;;
37311;SDS011;23197;53.912;9.138;2022-07-03T00:35:31;3.17;;;2.03;;
37311;SDS011;23197;53.912;9.138;2022-07-03T00:37:58;4.45;;;2.15;;
37311;SDS011;23197;53.912;9.138;2022-07-03T00:40:24;4.75;;;2.10;;
37311;SDS011;23197;53.912;9.138;2022-07-03T00:42:50;3.58;;;2.05;;
37311;SDS011;23197;53.912;9.138;2022-07-03T00:45:19;3.35;;;1.88;;
37311;SDS011;23197;53.912;9.138;2022-07-03T00:47:46;3.70;;;2.00;;
37311;SDS011;23197;53.912;9.138;2022-07-03T00:50:12;4.13;;;1.92;;
37311;SDS011;23197;53.912;9.138;2022-07-03T00:52:38;3.17;;;1.85;;
37311;SDS011;23197;53.912;9.138;2022-07-03T00:55:07;3.38;;;2.03;;
37311;SDS011;23197;53.912;9.138;2022-07-03T00:57:37;4.28;;;2.00;;
37311;SDS011;23197;53.912;9.138;2022-07-03T01:00:15;2.95;;;2.10;;
37311;SDS011;23197;53.912;9.138;2022-07-03T01:05:31;3.65;;;2.28;;
37311;SDS011;23197;53.912;9.138;2022-07-03T01:11:09;4.57;;;2.25;;
37311;SDS011;23197;53.912;9.138;2022-07-03T01:16:41;3.55;;;1.90;;
37311;SDS011;23197;53.912;9.138;2022-07-03T01:30:37;4.07;;;2.53;;
37311;SDS011;23197;53.912;9.138;2022-07-03T01:33:09;4.57;;;2.28;;
37311;SDS011;23197;53.912;9.138;2022-07-03T01:35:37;6.47;;;2.55;;
37311;SDS011;23197;53.912;9.138;2022-07-03T01:38:12;4.28;;;2.28;;
37311;SDS011;23197;53.912;9.138;2022-07-03T01:40:39;5.25;;;2.22;;
37311;SDS011;23197;53.912;9.138;2022-07-03T01:43:07;4.30;;;2.33;;
37311;SDS011;23197;53.912;9.138;2022-07-03T01:45:38;4.03;;;2.30;;
37311;SDS011;23197;53.912;9.138;2022-07-03T01:48:07;3.50;;;2.28;;
37311;SDS011;23197;53.912;9.138;2022-07-03T01:50:36;3.88;;;2.60;;
37311;SDS011;23197;53.912;9.138;2022-07-03T01:53:02;3.45;;;2.33;;
37311;SDS011;23197;53.912;9.138;2022-07-03T01:55:31;3.85;;;2.53;;
37311;SDS011;23197;53.912;9.138;2022-07-03T01:57:57;4.60;;;2.47;;
37311;SDS011;23197;53.912;9.138;2022-07-03T02:00:23;4.07;;;2.38;;
37311;SDS011;23197;53.912;9.138;2022-07-03T02:08:03;4.15;;;2.72;;
37311;SDS011;23197;53.912;9.138;2022-07-03T02:10:34;4.30;;;2.22;;
37311;SDS011;23197;53.912;9.138;2022-07-03T02:13:11;4.22;;;2.63;;
37311;SDS011;23197;53.912;9.138;2022-07-03T02:15:42;3.60;;;2.33;;
37311;SDS011;23197;53.912;9.138;2022-07-03T02:21:14;3.22;;;2.38;;
37311;SDS011;23197;53.912;9.138;2022-07-03T02:26:20;4.45;;;2.72;;
37311;SDS011;23197;53.912;9.138;2022-07-03T02:29:02;4.25;;;2.30;;
37311;SDS011;23197;53.912;9.138;2022-07-03T02:31:33;3.65;;;2.30;;
37311;SDS011;23197;53.912;9.138;2022-07-03T02:34:04;3.47;;;2.30;;
37311;SDS011;23197;53.912;9.138;2022-07-03T02:36:31;3.75;;;2.30;;
37311;SDS011;23197;53.912;9.138;2022-07-03T02:38:58;3.05;;;2.30;;
37311;SDS011;23197;53.912;9.138;2022-07-03T02:41:37;5.03;;;2.75;;
37311;SDS011;23197;53.912;9.138;2022-07-03T02:44:42;4.13;;;2.70;;
37311;SDS011;23197;53.912;9.138;2022-07-03T02:55:20;3.90;;;2.60;;
37311;SDS011;23197;53.912;9.138;2022-07-03T02:58:05;3.63;;;2.70;;
37311;SDS011;23197;53.912;9.138;2022-07-03T03:00:37;4.57;;;2.63;;
37311;SDS011;23197;53.912;9.138;2022-07-03T03:03:07;3.97;;;2.70;;
37311;SDS011;23197;53.912;9.138;2022-07-03T03:05:45;3.72;;;2.60;;
37311;SDS011;23197;53.912;9.138;2022-07-03T03:08:15;4.80;;;2.80;;
37311;SDS011;23197;53.912;9.138;2022-07-03T03:10:44;6.35;;;2.85;;
37311;SDS011;23197;53.912;9.138;2022-07-03T03:13:15;5.28;;;2.88;;
37311;SDS011;23197;53.912;9.138;2022-07-03T03:16:04;4.32;;;2.70;;
37311;SDS011;23197;53.912;9.138;2022-07-03T03:18:38;4.97;;;3.00;;
37311;SDS011;23197;53.912;9.138;2022-07-03T03:21:08;4.93;;;2.55;;
37311;SDS011;23197;53.912;9.138;2022-07-03T03:23:44;6.70;;;2.70;;
37311;SDS011;23197;53.912;9.138;2022-07-03T03:26:18;4.75;;;3.30;;
37311;SDS011;23197;53.912;9.138;2022-07-03T03:28:44;4.60;;;3.10;;
37311;SDS011;23197;53.912;9.138;2022-07-03T03:31:10;5.18;;;3.00;;
37311;SDS011;23197;53.912;9.138;2022-07-03T03:33:41;6.20;;;3.50;;
37311;SDS011;23197;53.912;9.138;2022-07-03T03:36:11;6.20;;;2.78;;
37311;SDS011;23197;53.912;9.138;2022-07-03T03:38:39;4.20;;;2.90;;
37311;SDS011;23197;53.912;9.138;2022-07-03T03:41:05;4.07;;;2.90;;
37311;SDS011;23197;53.912;9.138;2022-07-03T03:43:32;5.40;;;2.88;;
37311;SDS011;23197;53.912;9.138;2022-07-03T03:45:59;5.22;;;3.13;;
37311;SDS011;23197;53.912;9.138;2022-07-03T03:48:28;3.90;;;2.83;;
37311;SDS011;23197;53.912;9.138;2022-07-03T03:50:58;3.92;;;3.13;;
37311;SDS011;23197;53.912;9.138;2022-07-03T03:53:25;4.85;;;3.10;;
37311;SDS011;23197;53.912;9.138;2022-07-03T03:58:30;4.45;;;3.28;;
37311;SDS011;23197;53.912;9.138;2022-07-03T04:00:57;3.80;;;2.97;;
37311;SDS011;23197;53.912;9.138;2022-07-03T04:03:24;3.65;;;2.70;;
37311;SDS011;23197;53.912;9.138;2022-07-03T04:05:52;5.25;;;3.00;;
37311;SDS011;23197;53.912;9.138;2022-07-03T04:08:18;6.65;;;3.20;;
37311;SDS011;23197;53.912;9.138;2022-07-03T04:10:45;4.93;;;3.03;;
37311;SDS011;23197;53.912;9.138;2022-07-03T04:13:10;4.47;;;3.30;;
37311;SDS011;23197;53.912;9.138;2022-07-03T04:15:36;4.97;;;3.42;;
37311;SDS011;23197;53.912;9.138;2022-07-03T04:18:01;4.28;;;3.22;;
37311;SDS011;23197;53.912;9.138;2022-07-03T04:20:27;4.70;;;3.13;;
37311;SDS011;23197;53.912;9.138;2022-07-03T04:22:52;4.43;;;3.35;;
37311;SDS011;23197;53.912;9.138;2022-07-03T04:25:18;4.55;;;3.17;;
37311;SDS011;23197;53.912;9.138;2022-07-03T04:27:43;4.47;;;3.20;;
37311;SDS011;23197;53.912;9.138;2022-07-03T04:30:09;4.13;;;3.17;;
37311;SDS011;23197;53.912;9.138;2022-07-03T04:32:36;4.65;;;3.33;;
37311;SDS011;23197;53.912;9.138;2022-07-03T04:35:02;4.47;;;3.50;;
37311;SDS011;23197;53.912;9.138;2022-07-03T04:37:29;4.40;;;3.15;;
37311;SDS011;23197;53.912;9.138;2022-07-03T04:39:54;4.75;;;3.45;;
37311;SDS011;23197;53.912;9.138;2022-07-03T04:42:20;5.35;;;3.80;;
37311;SDS011;23197;53.912;9.138;2022-07-03T04:44:45;4.78;;;3.25;;
37311;SDS011;23197;53.912;9.138;2022-07-03T04:47:10;4.72;;;2.92;;
37311;SDS011;23197;53.912;9.138;2022-07-03T04:49:36;5.05;;;3.10;;
37311;SDS011;23197;53.912;9.138;2022-07-03T04:52:01;6.22;;;3.67;;
37311;SDS011;23197;53.912;9.138;2022-07-03T04:54:27;4.45;;;3.35;;
37311;SDS011;23197;53.912;9.138;2022-07-03T04:56:53;4.68;;;3.10;;
37311;SDS011;23197;53.912;9.138;2022-07-03T04:59:18;6.00;;;3.80;;
37311;SDS011;23197;53.912;9.138;2022-07-03T05:01:43;5.50;;;3.40;;
37311;SDS011;23197;53.912;9.138;2022-07-03T05:04:09;5.13;;;3.20;;
37311;SDS011;23197;53.912;9.138;2022-07-03T05:06:35;4.05;;;3.08;;
37311;SDS011;23197;53.912;9.138;2022-07-03T05:09:00;4.65;;;3.60;;
37311;SDS011;23197;53.912;9.138;2022-07-03T05:11:25;5.60;;;3.70;;
37311;SDS011;23197;53.912;9.138;2022-07-03T05:13:51;4.30;;;3.20;;
37311;SDS011;23197;53.912;9.138;2022-07-03T05:16:16;5.03;;;3.47;;
37311;SDS011;23197;53.912;9.138;2022-07-03T05:18:42;4.07;;;3.15;;
37311;SDS011;23197;53.912;9.138;2022-07-03T05:21:07;4.38;;;2.90;;
37311;SDS011;23197;53.912;9.138;2022-07-03T05:23:33;3.83;;;3.13;;
37311;SDS011;23197;53.912;9.138;2022-07-03T05:25:58;3.60;;;3.00;;
37311;SDS011;23197;53.912;9.138;2022-07-03T05:28:24;4.20;;;3.28;;
37311;SDS011;23197;53.912;9.138;2022-07-03T05:30:50;5.75;;;3.80;;
37311;SDS011;23197;53.912;9.138;2022-07-03T05:33:15;5.38;;;3.45;;
37311;SDS011;23197;53.912;9.138;2022-07-03T05:35:41;5.88;;;3.50;;
37311;SDS011;23197;53.912;9.138;2022-07-03T05:38:06;7.97;;;3.70;;
37311;SDS011;23197;53.912;9.138;2022-07-03T05:40:32;4.50;;;3.40;;
37311;SDS011;23197;53.912;9.138;2022-07-03T05:42:57;5.95;;;3.45;;
37311;SDS011;23197;53.912;9.138;2022-07-03T05:45:23;6.70;;;3.47;;
37311;SDS011;23197;53.912;9.138;2022-07-03T05:47:48;4.65;;;3.42;;
37311;SDS011;23197;53.912;9.138;2022-07-03T05:50:14;5.78;;;3.35;;
37311;SDS011;23197;53.912;9.138;2022-07-03T05:52:39;4.45;;;3.15;;
37311;SDS011;23197;53.912;9.138;2022-07-03T05:55:05;6.13;;;3.08;;
37311;SDS011;23197;53.912;9.138;2022-07-03T05:57:31;4.93;;;3.38;;
37311;SDS011;23197;53.912;9.138;2022-07-03T05:59:56;5.38;;;3.20;;
37311;SDS011;23197;53.912;9.138;2022-07-03T06:02:21;3.92;;;2.97;;
37311;SDS011;23197;53.912;9.138;2022-07-03T06:04:47;4.90;;;3.30;;
37311;SDS011;23197;53.912;9.138;2022-07-03T06:07:12;4.65;;;3.20;;
37311;SDS011;23197;53.912;9.138;2022-07-03T06:09:38;4.05;;;2.95;;
37311;SDS011;23197;53.912;9.138;2022-07-03T06:12:03;4.25;;;3.03;;
37311;SDS011;23197;53.912;9.138;2022-07-03T06:14:29;3.97;;;2.80;;
37311;SDS011;23197;53.912;9.138;2022-07-03T06:16:54;5.47;;;3.50;;
37311;SDS011;23197;53.912;9.138;2022-07-03T06:19:20;5.30;;;2.90;;
37311;SDS011;23197;53.912;9.138;2022-07-03T06:21:45;4.50;;;3.30;;
37311;SDS011;23197;53.912;9.138;2022-07-03T06:24:11;5.28;;;3.33;;
37311;SDS011;23197;53.912;9.138;2022-07-03T06:26:36;4.25;;;3.10;;
37311;SDS011;23197;53.912;9.138;2022-07-03T06:29:02;5.50;;;3.28;;
37311;SDS011;23197;53.912;9.138;2022-07-03T06:31:27;4.32;;;3.30;;
37311;SDS011;23197;53.912;9.138;2022-07-03T06:33:53;6.20;;;3.33;;
37311;SDS011;23197;53.912;9.138;2022-07-03T06:36:18;4.68;;;3.38;;
37311;SDS011;23197;53.912;9.138;2022-07-03T06:38:44;4.25;;;3.20;;
37311;SDS011;23197;53.912;9.138;2022-07-03T06:41:09;4.30;;;3.08;;
37311;SDS011;23197;53.912;9.138;2022-07-03T06:43:34;4.47;;;3.17;;
37311;SDS011;23197;53.912;9.138;2022-07-03T06:46:00;4.22;;;3.00;;
37311;SDS011;23197;53.912;9.138;2022-07-03T06:48:25;4.78;;;2.90;;
37311;SDS011;23197;53.912;9.138;2022-07-03T06:50:51;3.97;;;2.55;;
37311;SDS011;23197;53.912;9.138;2022-07-03T06:53:16;4.35;;;2.80;;
37311;SDS011;23197;53.912;9.138;2022-07-03T06:55:42;3.92;;;2.92;;
37311;SDS011;23197;53.912;9.138;2022-07-03T06:58:07;4.45;;;2.92;;
37311;SDS011;23197;53.912;9.138;2022-07-03T07:00:33;3.70;;;2.72;;
37311;SDS011;23197;53.912;9.138;2022-07-03T07:02:58;4.82;;;3.05;;
37311;SDS011;23197;53.912;9.138;2022-07-03T07:05:24;3.85;;;3.00;;
37311;SDS011;23197;53.912;9.138;2022-07-03T07:07:49;3.33;;;2.58;;
37311;SDS011;23197;53.912;9.138;2022-07-03T07:10:15;4.00;;;2.80;;
37311;SDS011;23197;53.912;9.138;2022-07-03T07:12:40;4.63;;;2.78;;
37311;SDS011;23197;53.912;9.138;2022-07-03T07:15:06;3.97;;;3.10;;
37311;SDS011;23197;53.912;9.138;2022-07-03T07:17:32;3.75;;;2.70;;
37311;SDS011;23197;53.912;9.138;2022-07-03T07:19:58;3.97;;;2.70;;
37311;SDS011;23197;53.912;9.138;2022-07-03T07:22:24;4.45;;;2.63;;
37311;SDS011;23197;53.912;9.138;2022-07-03T07:24:50;3.95;;;2.80;;
37311;SDS011;23197;53.912;9.138;2022-07-03T07:27:16;6.07;;;2.80;;
37311;SDS011;23197;53.912;9.138;2022-07-03T07:29:41;4.03;;;2.75;;
37311;SDS011;23197;53.912;9.138;2022-07-03T07:32:07;5.05;;;2.70;;
37311;SDS011;23197;53.912;9.138;2022-07-03T07:34:32;4.20;;;2.80;;
37311;SDS011;23197;53.912;9.138;2022-07-03T07:36:58;5.03;;;3.20;;
37311;SDS011;23197;53.912;9.138;2022-07-03T07:39:23;4.57;;;3.05;;
37311;SDS011;23197;53.912;9.138;2022-07-03T07:41:49;4.18;;;2.92;;
37311;SDS011;23197;53.912;9.138;2022-07-03T07:44:14;5.30;;;2.67;;
37311;SDS011;23197;53.912;9.138;2022-07-03T07:46:40;4.38;;;3.00;;
37311;SDS011;23197;53.912;9.138;2022-07-03T07:49:05;4.32;;;2.75;;
37311;SDS011;23197;53.912;9.138;2022-07-03T07:51:31;4.38;;;2.75;;
37311;SDS011;23197;53.912;9.138;2022-07-03T07:53:56;3.53;;;2.42;;
37311;SDS011;23197;53.912;9.138;2022-07-03T07:56:25;5.13;;;2.70;;
37311;SDS011;23197;53.912;9.138;2022-07-03T07:58:52;4.88;;;2.80;;
37311;SDS011;23197;53.912;9.138;2022-07-03T08:01:18;3.75;;;2.58;;
37311;SDS011;23197;53.912;9.138;2022-07-03T08:04:02;4.60;;;3.28;;
37311;SDS011;23197;53.912;9.138;2022-07-03T08:06:48;4.65;;;2.42;;
37311;SDS011;23197;53.912;9.138;2022-07-03T08:09:14;4.60;;;2.38;;
37311;SDS011;23197;53.912;9.138;2022-07-03T08:11:39;4.65;;;2.45;;
37311;SDS011;23197;53.912;9.138;2022-07-03T08:14:05;4.30;;;2.13;;
37311;SDS011;23197;53.912;9.138;2022-07-03T08:16:33;3.80;;;1.85;;
37311;SDS011;23197;53.912;9.138;2022-07-03T08:18:59;2.97;;;1.90;;
37311;SDS011;23197;53.912;9.138;2022-07-03T08:21:24;3.67;;;2.00;;
37311;SDS011;23197;53.912;9.138;2022-07-03T08:23:50;3.63;;;1.90;;
37311;SDS011;23197;53.912;9.138;2022-07-03T08:26:15;4.32;;;2.30;;
37311;SDS011;23197;53.912;9.138;2022-07-03T08:28:41;3.33;;;2.03;;
37311;SDS011;23197;53.912;9.138;2022-07-03T08:31:07;4.00;;;1.80;;
37311;SDS011;23197;53.912;9.138;2022-07-03T08:33:32;2.85;;;1.52;;
37311;SDS011;23197;53.912;9.138;2022-07-03T08:35:58;2.83;;;1.70;;
37311;SDS011;23197;53.912;9.138;2022-07-03T08:38:25;4.43;;;1.67;;
37311;SDS011;23197;53.912;9.138;2022-07-03T08:40:57;3.90;;;1.80;;
37311;SDS011;23197;53.912;9.138;2022-07-03T08:43:24;3.22;;;1.73;;
37311;SDS011;23197;53.912;9.138;2022-07-03T08:45:49;2.20;;;1.40;;
37311;SDS011;23197;53.912;9.138;2022-07-03T08:48:15;3.33;;;1.80;;
37311;SDS011;23197;53.912;9.138;2022-07-03T08:50:43;2.55;;;1.63;;
37311;SDS011;23197;53.912;9.138;2022-07-03T08:53:11;2.60;;;1.75;;
37311;SDS011;23197;53.912;9.138;2022-07-03T08:55:36;3.90;;;1.52;;
37311;SDS011;23197;53.912;9.138;2022-07-03T08:58:02;3.22;;;1.60;;
37311;SDS011;23197;53.912;9.138;2022-07-03T09:00:31;3.33;;;1.70;;
37311;SDS011;23197;53.912;9.138;2022-07-03T09:02:57;3.05;;;1.50;;
37311;SDS011;23197;53.912;9.138;2022-07-03T09:05:24;3.15;;;1.58;;
37311;SDS011;23197;53.912;9.138;2022-07-03T09:07:50;2.28;;;1.30;;
37311;SDS011;23197;53.912;9.138;2022-07-03T09:10:17;2.22;;;1.40;;
37311;SDS011;23197;53.912;9.138;2022-07-03T09:12:44;2.67;;;1.50;;
37311;SDS011;23197;53.912;9.138;2022-07-03T09:15:10;2.85;;;1.30;;
37311;SDS011;23197;53.912;9.138;2022-07-03T09:17:36;2.55;;;1.30;;
37311;SDS011;23197;53.912;9.138;2022-07-03T09:20:03;1.98;;;1.20;;
37311;SDS011;23197;53.912;9.138;2022-07-03T09:22:31;2.13;;;1.20;;
37311;SDS011;23197;53.912;9.138;2022-07-03T09:25:05;2.28;;;1.10;;
37311;SDS011;23197;53.912;9.138;2022-07-03T09:27:32;2.60;;;1.20;;
37311;SDS011;23197;53.912;9.138;2022-07-03T09:29:59;1.75;;;1.15;;
37311;SDS011;23197;53.912;9.138;2022-07-03T09:32:27;2.30;;;1.10;;
37311;SDS011;23197;53.912;9.138;2022-07-03T09:35:11;1.58;;;1.00;;
37311;SDS011;23197;53.912;9.138;2022-07-03T09:37:54;1.65;;;0.80;;
37311;SDS011;23197;53.912;9.138;2022-07-03T09:40:23;1.55;;;1.30;;
37311;SDS011;23197;53.912;9.138;2022-07-03T09:42:56;2.15;;;1.20;;
37311;SDS011;23197;53.912;9.138;2022-07-03T09:45:48;1.60;;;1.02;;
37311;SDS011;23197;53.912;9.138;2022-07-03T09:48:20;1.83;;;1.00;;
37311;SDS011;23197;53.912;9.138;2022-07-03T09:50:46;2.33;;;1.00;;
37311;SDS011;23197;53.912;9.138;2022-07-03T09:53:11;1.40;;;1.00;;
37311;SDS011;23197;53.912;9.138;2022-07-03T09:55:37;2.88;;;1.00;;
37311;SDS011;23197;53.912;9.138;2022-07-03T09:58:02;1.98;;;1.05;;
37311;SDS011;23197;53.912;9.138;2022-07-03T10:00:31;2.20;;;1.02;;
37311;SDS011;23197;53.912;9.138;2022-07-03T10:05:26;1.95;;;1.20;;
37311;SDS011;23197;53.912;9.138;2022-07-03T10:10:29;1.52;;;1.08;;
37311;SDS011;23197;53.912;9.138;2022-07-03T10:12:57;2.15;;;1.20;;
37311;SDS011;23197;53.912;9.138;2022-07-03T10:15:23;2.22;;;1.02;;
37311;SDS011;23197;53.912;9.138;2022-07-03T10:17:51;5.25;;;1.40;;
37311;SDS011;23197;53.912;9.138;2022-07-03T10:20:34;1.98;;;1.20;;
37311;SDS011;23197;53.912;9.138;2022-07-03T10:23:03;3.08;;;1.38;;
37311;SDS011;23197;53.912;9.138;2022-07-03T10:25:29;2.60;;;1.30;;
37311;SDS011;23197;53.912;9.138;2022-07-03T10:27:55;1.98;;;1.50;;
37311;SDS011;23197;53.912;9.138;2022-07-03T10:30:22;2.83;;;1.30;;
37311;SDS011;23197;53.912;9.138;2022-07-03T10:32:51;3.30;;;1.50;;
37311;SDS011;23197;53.912;9.138;2022-07-03T10:35:32;3.30;;;1.80;;
37311;SDS011;23197;53.912;9.138;2022-07-03T10:40:32;3.83;;;2.13;;
37311;SDS011;23197;53.912;9.138;2022-07-03T10:43:26;3.53;;;1.75;;
37311;SDS011;23197;53.912;9.138;2022-07-03T10:48:56;2.35;;;1.30;;
37311;SDS011;23197;53.912;9.138;2022-07-03T10:51:25;2.80;;;1.60;;
37311;SDS011;23197;53.912;9.138;2022-07-03T11:02:21;2.20;;;1.20;;
37311;SDS011;23197;53.912;9.138;2022-07-03T11:07:22;4.18;;;1.23;;
37311;SDS011;23197;53.912;9.138;2022-07-03T11:12:56;2.25;;;1.20;;
37311;SDS011;23197;53.912;9.138;2022-07-03T11:15:25;1.52;;;1.00;;
37311;SDS011;23197;53.912;9.138;2022-07-03T11:18:39;2.22;;;1.25;;
37311;SDS011;23197;53.912;9.138;2022-07-03T11:25:58;2.03;;;1.30;;
37311;SDS011;23197;53.912;9.138;2022-07-03T11:41:20;3.55;;;1.17;;
37311;SDS011;23197;53.912;9.138;2022-07-03T11:43:49;2.67;;;1.40;;
37311;SDS011;23197;53.912;9.138;2022-07-03T11:46:17;2.42;;;1.13;;
37311;SDS011;23197;53.912;9.138;2022-07-03T11:48:44;3.50;;;1.15;;
37311;SDS011;23197;53.912;9.138;2022-07-03T11:51:09;2.97;;;1.05;;
37311;SDS011;23197;53.912;9.138;2022-07-03T11:53:38;2.55;;;1.10;;
37311;SDS011;23197;53.912;9.138;2022-07-03T11:56:06;2.10;;;1.20;;
37311;SDS011;23197;53.912;9.138;2022-07-03T11:58:41;3.03;;;1.27;;
37311;SDS011;23197;53.912;9.138;2022-07-03T12:01:10;3.67;;;1.40;;
37311;SDS011;23197;53.912;9.138;2022-07-03T12:03:52;2.33;;;1.25;;
37311;SDS011;23197;53.912;9.138;2022-07-03T12:06:19;3.47;;;1.20;;
37311;SDS011;23197;53.912;9.138;2022-07-03T12:08:54;2.30;;;1.27;;
37311;SDS011;23197;53.912;9.138;2022-07-03T12:11:30;4.57;;;1.70;;
37311;SDS011;23197;53.912;9.138;2022-07-03T12:13:56;2.45;;;1.63;;
37311;SDS011;23197;53.912;9.138;2022-07-03T12:16:29;2.25;;;1.30;;
37311;SDS011;23197;53.912;9.138;2022-07-03T12:19:04;2.42;;;1.20;;
37311;SDS011;23197;53.912;9.138;2022-07-03T12:21:37;2.33;;;1.27;;
37311;SDS011;23197;53.912;9.138;2022-07-03T12:24:15;2.80;;;1.40;;
37311;SDS011;23197;53.912;9.138;2022-07-03T12:26:41;3.50;;;1.25;;
37311;SDS011;23197;53.912;9.138;2022-07-03T12:29:07;2.20;;;1.10;;
37311;SDS011;23197;53.912;9.138;2022-07-03T12:31:42;3.40;;;1.20;;
37311;SDS011;23197;53.912;9.138;2022-07-03T12:34:14;2.90;;;1.10;;
37311;SDS011;23197;53.912;9.138;2022-07-03T12:36:59;2.08;;;1.05;;
37311;SDS011;23197;53.912;9.138;2022-07-03T12:39:43;3.35;;;1.13;;
37311;SDS011;23197;53.912;9.138;2022-07-03T12:42:20;2.33;;;1.10;;
37311;SDS011;23197;53.912;9.138;2022-07-03T12:45:02;2.50;;;1.15;;
37311;SDS011;23197;53.912;9.138;2022-07-03T12:47:31;2.60;;;1.20;;
37311;SDS011;23197;53.912;9.138;2022-07-03T12:49:58;2.03;;;1.00;;
37311;SDS011;23197;53.912;9.138;2022-07-03T12:52:26;2.10;;;1.00;;
37311;SDS011;23197;53.912;9.138;2022-07-03T12:54:52;1.95;;;1.00;;
37311;SDS011;23197;53.912;9.138;2022-07-03T12:57:19;2.53;;;1.00;;
37311;SDS011;23197;53.912;9.138;2022-07-03T13:02:35;2.45;;;1.10;;
37311;SDS011;23197;53.912;9.138;2022-07-03T13:05:12;1.92;;;1.00;;
37311;SDS011;23197;53.912;9.138;2022-07-03T13:07:45;1.42;;;0.90;;
37311;SDS011;23197;53.912;9.138;2022-07-03T13:10:15;3.85;;;1.10;;
37311;SDS011;23197;53.912;9.138;2022-07-03T13:13:00;1.80;;;1.00;;
37311;SDS011;23197;53.912;9.138;2022-07-03T13:15:29;1.95;;;1.20;;
37311;SDS011;23197;53.912;9.138;2022-07-03T13:20:24;2.45;;;1.00;;
37311;SDS011;23197;53.912;9.138;2022-07-03T13:22:52;2.22;;;0.95;;
37311;SDS011;23197;53.912;9.138;2022-07-03T13:25:19;2.17;;;0.80;;
37311;SDS011;23197;53.912;9.138;2022-07-03T13:27:47;2.28;;;1.00;;
37311;SDS011;23197;53.912;9.138;2022-07-03T13:30:16;2.50;;;1.10;;
37311;SDS011;23197;53.912;9.138;2022-07-03T13:32:43;1.67;;;0.82;;
37311;SDS011;23197;53.912;9.138;2022-07-03T13:35:10;1.98;;;0.95;;
37311;SDS011;23197;53.912;9.138;2022-07-03T13:37:35;2.38;;;1.20;;
37311;SDS011;23197;53.912;9.138;2022-07-03T13:40:02;2.30;;;1.10;;
37311;SDS011;23197;53.912;9.138;2022-07-03T13:42:29;2.30;;;0.80;;
37311;SDS011;23197;53.912;9.138;2022-07-03T13:44:54;3.17;;;1.10;;
37311;SDS011;23197;53.912;9.138;2022-07-03T13:47:20;1.65;;;0.93;;
37311;SDS011;23197;53.912;9.138;2022-07-03T13:49:45;2.75;;;1.08;;
37311;SDS011;23197;53.912;9.138;2022-07-03T13:52:11;2.42;;;0.90;;
37311;SDS011;23197;53.912;9.138;2022-07-03T13:54:37;2.95;;;1.10;;
37311;SDS011;23197;53.912;9.138;2022-07-03T13:57:02;2.33;;;0.90;;
37311;SDS011;23197;53.912;9.138;2022-07-03T13:59:28;3.95;;;1.20;;
37311;SDS011;23197;53.912;9.138;2022-07-03T14:01:57;2.22;;;0.90;;
37311;SDS011;23197;53.912;9.138;2022-07-03T14:04:23;1.90;;;1.00;;
37311;SDS011;23197;53.912;9.138;2022-07-03T14:06:49;1.35;;;1.00;;
37311;SDS011;23197;53.912;9.138;2022-07-03T14:09:15;2.10;;;1.10;;
37311;SDS011;23197;53.912;9.138;2022-07-03T14:11:40;1.98;;;1.00;;
37311;SDS011;23197;53.912;9.138;2022-07-03T14:14:06;2.63;;;1.00;;
37311;SDS011;23197;53.912;9.138;2022-07-03T14:16:31;1.50;;;0.82;;
37311;SDS011;23197;53.912;9.138;2022-07-03T14:18:57;2.92;;;1.00;;
37311;SDS011;23197;53.912;9.138;2022-07-03T14:21:22;3.25;;;1.20;;
37311;SDS011;23197;53.912;9.138;2022-07-03T14:23:48;2.25;;;1.25;;
37311;SDS011;23197;53.912;9.138;2022-07-03T14:26:13;2.97;;;1.20;;
37311;SDS011;23197;53.912;9.138;2022-07-03T14:28:39;3.53;;;1.17;;
37311;SDS011;23197;53.912;9.138;2022-07-03T14:31:23;7.25;;;1.73;;
37311;SDS011;23197;53.912;9.138;2022-07-03T14:33:48;2.83;;;1.42;;
37311;SDS011;23197;53.912;9.138;2022-07-03T14:36:14;4.18;;;1.55;;
37311;SDS011;23197;53.912;9.138;2022-07-03T14:38:40;2.65;;;1.30;;
37311;SDS011;23197;53.912;9.138;2022-07-03T14:41:06;6.75;;;1.50;;
37311;SDS011;23197;53.912;9.138;2022-07-03T14:43:31;7.28;;;1.92;;
37311;SDS011;23197;53.912;9.138;2022-07-03T14:45:57;4.32;;;1.60;;
37311;SDS011;23197;53.912;9.138;2022-07-03T14:48:22;3.15;;;1.13;;
37311;SDS011;23197;53.912;9.138;2022-07-03T14:50:48;4.60;;;1.15;;
37311;SDS011;23197;53.912;9.138;2022-07-03T14:53:13;2.90;;;1.13;;
37311;SDS011;23197;53.912;9.138;2022-07-03T14:55:39;2.40;;;1.27;;
37311;SDS011;23197;53.912;9.138;2022-07-03T15:00:39;3.50;;;1.30;;
37311;SDS011;23197;53.912;9.138;2022-07-03T15:03:08;2.47;;;1.40;;
37311;SDS011;23197;53.912;9.138;2022-07-03T15:05:40;3.90;;;1.50;;
37311;SDS011;23197;53.912;9.138;2022-07-03T15:08:58;3.47;;;1.92;;
37311;SDS011;23197;53.912;9.138;2022-07-03T15:11:15;3.42;;;1.30;;
37311;SDS011;23197;53.912;9.138;2022-07-03T15:14:04;4.63;;;1.50;;
37311;SDS011;23197;53.912;9.138;2022-07-03T15:16:31;2.40;;;1.42;;
37311;SDS011;23197;53.912;9.138;2022-07-03T15:18:59;3.75;;;1.40;;
37311;SDS011;23197;53.912;9.138;2022-07-03T15:21:29;3.28;;;1.30;;
37311;SDS011;23197;53.912;9.138;2022-07-03T15:24:00;2.80;;;1.33;;
37311;SDS011;23197;53.912;9.138;2022-07-03T15:26:30;3.63;;;1.45;;
37311;SDS011;23197;53.912;9.138;2022-07-03T15:28:57;3.22;;;1.50;;
37311;SDS011;23197;53.912;9.138;2022-07-03T15:31:25;3.63;;;1.83;;
37311;SDS011;23197;53.912;9.138;2022-07-03T15:33:52;4.75;;;1.50;;
37311;SDS011;23197;53.912;9.138;2022-07-03T15:36:18;4.35;;;1.40;;
37311;SDS011;23197;53.912;9.138;2022-07-03T15:38:55;3.78;;;1.38;;
37311;SDS011;23197;53.912;9.138;2022-07-03T15:41:28;3.50;;;1.40;;
37311;SDS011;23197;53.912;9.138;2022-07-03T15:44:20;3.50;;;1.20;;
37311;SDS011;23197;53.912;9.138;2022-07-03T15:47:03;1.80;;;1.02;;
37311;SDS011;23197;53.912;9.138;2022-07-03T15:52:13;2.33;;;1.10;;
37311;SDS011;23197;53.912;9.138;2022-07-03T15:55:16;4.05;;;1.17;;
37311;SDS011;23197;53.912;9.138;2022-07-03T16:00:21;2.85;;;1.33;;
37311;SDS011;23197;53.912;9.138;2022-07-03T16:05:34;2.85;;;1.50;;
37311;SDS011;23197;53.912;9.138;2022-07-03T16:08:02;3.03;;;1.20;;
37311;SDS011;23197;53.912;9.138;2022-07-03T16:10:33;2.38;;;1.08;;
37311;SDS011;23197;53.912;9.138;2022-07-03T16:12:59;4.05;;;1.10;;
37311;SDS011;23197;53.912;9.138;2022-07-03T16:15:29;3.45;;;1.00;;
37311;SDS011;23197;53.912;9.138;2022-07-03T16:17:56;2.65;;;0.95;;
37311;SDS011;23197;53.912;9.138;2022-07-03T16:20:26;3.67;;;1.15;;
37311;SDS011;23197;53.912;9.138;2022-07-03T16:22:54;2.50;;;1.08;;
37311;SDS011;23197;53.912;9.138;2022-07-03T16:25:28;2.35;;;0.93;;
37311;SDS011;23197;53.912;9.138;2022-07-03T16:27:55;2.63;;;1.10;;
37311;SDS011;23197;53.912;9.138;2022-07-03T16:30:20;2.28;;;1.15;;
37311;SDS011;23197;53.912;9.138;2022-07-03T16:32:46;3.10;;;1.00;;
37311;SDS011;23197;53.912;9.138;2022-07-03T16:35:14;4.50;;;1.30;;
37311;SDS011;23197;53.912;9.138;2022-07-03T16:40:17;3.25;;;0.90;;